createdAt,value
2023-02-11T00:02:17.057Z,28.63
2023-02-11T00:07:18.911Z,28.03
2023-02-11T00:12:20.749Z,28.13
2023-02-11T00:17:22.731Z,26.40
2023-02-11T00:22:24.790Z,28.73
2023-02-11T00:27:26.621Z,25.70
2023-02-11T00:32:28.476Z,29.00
2023-02-11T00:37:30.286Z,28.70
2023-02-11T00:42:32.414Z,28.70
2023-02-11T00:47:34.231Z,31.20
2023-02-11T00:52:36.033Z,28.50
2023-02-11T00:57:37.973Z,30.40
2023-02-11T01:02:42.850Z,31.03
2023-02-11T01:07:45.527Z,28.83
2023-02-11T01:12:47.463Z,29.50
2023-02-11T01:17:49.316Z,31.33
2023-02-11T01:22:51.155Z,29.77
2023-02-11T01:27:53.025Z,26.03
2023-02-11T01:32:54.848Z,28.17
2023-02-11T01:37:56.701Z,29.03
2023-02-11T01:42:59.560Z,26.53
2023-02-11T01:48:03.344Z,27.00
2023-02-11T01:53:23.627Z,28.00
2023-02-11T01:58:26.301Z,28.33
2023-02-11T02:03:30.479Z,29.57
2023-02-11T02:08:55.855Z,28.40
2023-02-11T02:13:57.783Z,25.50
2023-02-11T02:19:05.602Z,27.90
2023-02-11T02:24:32.820Z,28.47
2023-02-11T02:30:10.139Z,27.20
2023-02-11T02:35:36.739Z,27.00
2023-02-11T02:40:47.683Z,27.92
2023-02-11T02:45:49.809Z,26.38
2023-02-11T02:51:01.713Z,26.58
2023-02-11T02:56:42.369Z,25.67
2023-02-11T03:02:11.018Z,27.45
2023-02-11T03:07:23.433Z,26.85
2023-02-11T03:12:27.830Z,26.17
2023-02-11T03:17:33.254Z,24.48
2023-02-11T03:22:46.414Z,26.60
2023-02-11T03:27:57.291Z,27.10
2023-02-11T03:33:12.662Z,27.60
2023-02-11T03:38:25.228Z,27.23
2023-02-11T03:43:40.691Z,27.73
2023-02-11T03:48:48.781Z,26.75
2023-02-11T03:53:55.060Z,23.52
2023-02-11T03:58:57.424Z,27.67
2023-02-11T04:03:59.188Z,26.13
2023-02-11T04:09:01.014Z,26.63
2023-02-11T04:14:02.816Z,27.50
2023-02-11T04:19:05.158Z,26.70
2023-02-11T04:24:07.007Z,26.13
2023-02-11T04:29:08.790Z,25.77
2023-02-11T04:34:10.621Z,25.75
2023-02-11T04:39:12.644Z,27.08
2023-02-11T04:44:14.453Z,26.98
2023-02-11T04:49:17.428Z,27.98
2023-02-11T04:54:20.034Z,28.17
2023-02-11T04:59:21.861Z,24.98
2023-02-11T05:04:23.798Z,28.30
2023-02-11T05:09:25.825Z,28.70
2023-02-11T05:14:27.622Z,27.02
2023-02-11T05:19:29.460Z,27.90
2023-02-11T05:24:35.079Z,27.33
2023-02-11T05:29:37.044Z,26.27
2023-02-11T05:34:38.834Z,27.80
2023-02-11T05:39:40.782Z,25.52
2023-02-11T05:44:42.623Z,26.48
2023-02-11T05:49:44.420Z,27.02
2023-02-11T05:54:46.238Z,26.30
2023-02-11T05:59:48.066Z,27.92
2023-02-11T06:04:49.855Z,27.10
2023-02-11T06:09:51.747Z,26.45
2023-02-11T06:14:53.880Z,28.05
2023-02-11T06:19:55.678Z,27.77
2023-02-11T06:25:01.743Z,28.02
2023-02-11T06:30:05.558Z,26.38
2023-02-11T06:35:09.988Z,27.58
2023-02-11T06:40:13.373Z,27.83
2023-02-11T06:45:15.226Z,27.23
2023-02-11T06:50:17.059Z,26.30
2023-02-11T06:55:18.904Z,27.08
2023-02-11T07:00:20.758Z,49.25
2023-02-11T07:05:22.755Z,28.23
2023-02-11T07:10:24.603Z,27.33
2023-02-11T07:15:26.595Z,26.42
2023-02-11T07:20:28.409Z,28.17
2023-02-11T07:25:30.399Z,29.35
2023-02-11T07:30:32.254Z,28.88
2023-02-11T07:35:34.035Z,29.17
2023-02-11T07:40:36.622Z,30.63
2023-02-11T07:45:39.437Z,31.35
2023-02-11T07:50:41.244Z,30.75
2023-02-11T07:55:43.659Z,31.73
2023-02-11T08:00:46.115Z,28.73
2023-02-11T08:05:47.952Z,28.92
2023-02-11T08:10:50.031Z,30.67
2023-02-11T08:15:52.267Z,28.17
2023-02-11T08:20:54.228Z,31.90
2023-02-11T08:25:56.050Z,30.75
2023-02-11T08:30:58.017Z,31.17
2023-02-11T08:36:00.210Z,29.02
2023-02-11T08:41:02.164Z,28.25
2023-02-11T08:46:04.370Z,31.17
2023-02-11T08:51:08.705Z,31.85
2023-02-11T08:56:13.531Z,32.33
2023-02-11T09:01:25.459Z,31.95
2023-02-11T09:06:28.096Z,31.30
2023-02-11T09:11:35.231Z,31.92
2023-02-11T09:16:37.154Z,31.48
2023-02-11T09:21:39.093Z,32.55
2023-02-11T09:26:43.307Z,29.83
2023-02-11T09:31:45.383Z,29.52
2023-02-11T09:36:47.236Z,28.75
2023-02-11T09:42:06.707Z,32.03
2023-02-11T09:47:34.373Z,30.10
2023-02-11T09:52:40.296Z,30.45
2023-02-11T09:57:42.237Z,32.03
2023-02-11T10:02:59.134Z,32.38
2023-02-11T10:08:16.586Z,30.65
2023-02-11T10:13:59.159Z,29.95
2023-02-11T10:19:11.399Z,30.63
2023-02-11T10:24:16.076Z,29.50
2023-02-11T10:29:36.173Z,28.83
2023-02-11T10:34:42.547Z,32.08
2023-02-11T10:39:44.368Z,31.25
2023-02-11T10:45:07.448Z,29.17
2023-02-11T10:50:30.924Z,26.98
2023-02-11T10:55:33.005Z,30.98
2023-02-11T11:00:42.527Z,29.80
2023-02-11T11:06:01.028Z,29.10
2023-02-11T11:11:09.092Z,30.08
2023-02-11T11:16:14.087Z,28.77
2023-02-11T11:21:30.561Z,31.50
2023-02-11T11:26:48.951Z,29.95
2023-02-11T11:31:52.718Z,28.38
2023-02-11T11:36:56.390Z,27.88
2023-02-11T11:41:59.611Z,28.35
2023-02-11T11:47:25.138Z,27.90
2023-02-11T11:52:48.165Z,28.40
2023-02-11T11:57:51.323Z,26.98
2023-02-11T12:03:06.778Z,27.27
2023-02-11T12:08:17.692Z,27.17
2023-02-11T12:13:37.519Z,27.60
2023-02-11T12:19:08.543Z,26.88
2023-02-11T12:24:31.948Z,27.60
2023-02-11T12:29:51.619Z,26.35
2023-02-11T12:35:06.779Z,26.92
2023-02-11T12:40:21.861Z,27.02
2023-02-11T12:45:41.005Z,27.80
2023-02-11T12:50:49.101Z,25.13
2023-02-11T12:55:59.450Z,28.25
2023-02-11T13:01:06.824Z,29.30
2023-02-11T13:06:13.465Z,28.33
2023-02-11T13:11:24.568Z,26.30
2023-02-11T13:16:38.423Z,27.48
2023-02-11T13:21:56.056Z,26.73
2023-02-11T13:27:10.334Z,26.38
2023-02-11T13:32:14.923Z,26.90
2023-02-11T13:37:28.684Z,27.15
2023-02-11T13:42:32.616Z,25.42
2023-02-11T13:47:37.249Z,27.15
2023-02-11T13:52:39.531Z,26.80
2023-02-11T13:57:42.321Z,26.58
2023-02-11T14:03:02.586Z,26.35
2023-02-11T14:08:28.794Z,25.95
2023-02-11T14:13:37.093Z,26.60
2023-02-11T14:18:45.108Z,24.90
2023-02-11T14:23:47.232Z,25.17
2023-02-11T14:29:01.639Z,26.77
2023-02-11T14:34:15.633Z,25.73
2023-02-11T14:39:53.089Z,25.58
2023-02-11T14:45:04.922Z,25.15
2023-02-11T14:50:14.350Z,25.63
2023-02-11T14:55:30.032Z,25.58
2023-02-11T15:00:31.920Z,25.50
2023-02-11T15:05:34.801Z,25.42
2023-02-11T15:10:43.434Z,26.30
2023-02-11T15:15:46.740Z,24.25
2023-02-11T15:20:50.687Z,23.33
2023-02-11T15:25:56.020Z,24.13
2023-02-11T15:31:16.048Z,25.02
2023-02-11T15:36:20.685Z,25.48
2023-02-11T15:41:48.788Z,24.92
2023-02-11T15:46:51.248Z,25.10
2023-02-11T15:51:55.417Z,24.45
2023-02-11T15:57:05.002Z,25.15
2023-02-11T16:02:34.701Z,22.73
2023-02-11T16:07:47.379Z,23.42
2023-02-11T16:13:12.581Z,25.02
2023-02-11T16:18:37.673Z,23.67
2023-02-11T16:23:44.674Z,24.13
2023-02-11T16:28:46.832Z,23.98
2023-02-11T16:33:48.634Z,28.70
2023-02-11T16:38:51.364Z,24.08
2023-02-11T16:43:57.077Z,23.95
2023-02-11T16:49:08.307Z,22.33
2023-02-11T16:54:15.293Z,26.10
2023-02-11T16:59:17.211Z,25.63
2023-02-11T17:04:27.392Z,25.05
2023-02-11T17:09:31.107Z,26.67
2023-02-11T17:14:33.125Z,27.65
2023-02-11T17:19:34.916Z,26.42
2023-02-11T17:24:36.905Z,29.15
2023-02-11T17:29:38.707Z,29.65
2023-02-11T17:34:40.565Z,31.10
2023-02-11T17:39:42.462Z,32.13
2023-02-11T17:44:44.754Z,30.08
2023-02-11T17:49:46.631Z,34.47
2023-02-11T17:54:48.505Z,35.38
2023-02-11T17:59:50.322Z,38.38
2023-02-11T18:04:52.516Z,34.22
2023-02-11T18:09:54.720Z,36.35
2023-02-11T18:14:58.343Z,37.95
2023-02-11T18:20:00.240Z,38.90
2023-02-11T18:25:02.101Z,37.97
2023-02-11T18:30:05.547Z,38.70
2023-02-11T18:35:14.803Z,39.28
2023-02-11T18:40:16.902Z,38.50
2023-02-11T18:45:18.719Z,37.47
2023-02-11T18:50:22.112Z,40.40
2023-02-11T18:55:25.966Z,39.08
2023-02-11T19:00:27.904Z,36.88
2023-02-11T19:05:33.574Z,34.63
2023-02-11T19:10:35.669Z,37.78
2023-02-11T19:15:47.346Z,38.35
2023-02-11T19:20:49.408Z,36.42
2023-02-11T19:25:51.660Z,35.28
2023-02-11T19:30:53.831Z,35.70
2023-02-11T19:36:01.600Z,35.67
2023-02-11T19:41:03.586Z,35.97
2023-02-11T19:46:05.544Z,33.47
2023-02-11T19:51:11.453Z,48.83
2023-02-11T19:56:15.841Z,34.78
2023-02-11T20:01:20.332Z,32.22
2023-02-11T20:06:25.018Z,31.00
2023-02-11T20:11:29.896Z,28.25
2023-02-11T20:16:47.074Z,28.85
2023-02-11T20:21:56.081Z,28.92
2023-02-11T20:26:58.163Z,28.88
2023-02-11T20:32:00.462Z,29.45
2023-02-11T20:37:02.744Z,29.58
2023-02-11T20:42:04.600Z,26.77
2023-02-11T20:47:06.618Z,26.95
2023-02-11T20:52:08.487Z,26.45
2023-02-11T20:57:10.373Z,24.80
2023-02-11T21:02:13.477Z,26.00
2023-02-11T21:07:15.394Z,23.83
2023-02-11T21:12:17.467Z,23.20
2023-02-11T21:17:19.548Z,23.08
2023-02-11T21:22:21.367Z,21.85
2023-02-11T21:27:24.041Z,21.33
2023-02-11T21:32:25.983Z,22.67
2023-02-11T21:37:27.865Z,22.85
2023-02-11T21:42:29.675Z,23.02
2023-02-11T21:47:31.666Z,23.33
2023-02-11T21:52:33.525Z,21.50
2023-02-11T21:57:35.679Z,21.48
2023-02-11T22:02:40.624Z,20.42
2023-02-11T22:07:42.420Z,20.30
2023-02-11T22:12:44.337Z,18.48
2023-02-11T22:17:46.238Z,19.15
2023-02-11T22:22:48.039Z,19.00
2023-02-11T22:27:49.862Z,18.80
2023-02-11T22:32:51.688Z,19.48
2023-02-11T22:37:53.510Z,21.98
2023-02-11T22:42:55.325Z,20.35
2023-02-11T22:47:57.160Z,20.38
2023-02-11T22:52:59.051Z,19.10
2023-02-11T22:58:00.955Z,18.65
2023-02-11T23:03:03.645Z,20.00
2023-02-11T23:08:07.926Z,20.27
2023-02-11T23:13:12.392Z,20.58
2023-02-11T23:18:14.999Z,20.33
2023-02-11T23:23:16.795Z,19.98
2023-02-11T23:28:18.663Z,17.20
2023-02-11T23:33:21.351Z,17.75
2023-02-11T23:38:23.156Z,18.02
2023-02-11T23:43:24.966Z,18.23
2023-02-11T23:48:27.719Z,17.73
2023-02-11T23:53:29.745Z,19.10
2023-02-11T23:58:32.156Z,18.88
